sensor_id;sensor_type;location;lat;lon;timestamp;P1;durP1;ratioP1;P2;durP2;ratioP2
80119;SDS011;69425;55.040;82.918;2023-06-26T00:03:20;8.90;;;3.80;;
80119;SDS011;69425;55.040;82.918;2023-06-26T00:08:22;6.07;;;2.90;;
80119;SDS011;69425;55.040;82.918;2023-06-26T00:13:23;7.65;;;3.30;;
80119;SDS011;69425;55.040;82.918;2023-06-26T00:18:26;9.07;;;3.13;;
80119;SDS011;69425;55.040;82.918;2023-06-26T00:23:27;8.48;;;3.83;;
80119;SDS011;69425;55.040;82.918;2023-06-26T00:28:28;6.53;;;4.05;;
80119;SDS011;69425;55.040;82.918;2023-06-26T00:33:31;7.95;;;4.03;;
80119;SDS011;69425;55.040;82.918;2023-06-26T00:38:32;13.05;;;4.80;;
80119;SDS011;69425;55.040;82.918;2023-06-26T00:43:33;10.63;;;4.40;;
80119;SDS011;69425;55.040;82.918;2023-06-26T00:48:36;10.50;;;4.60;;
80119;SDS011;69425;55.040;82.918;2023-06-26T00:53:37;7.40;;;4.05;;
80119;SDS011;69425;55.040;82.918;2023-06-26T00:58:39;7.38;;;4.20;;
80119;SDS011;69425;55.040;82.918;2023-06-26T01:03:42;9.57;;;4.20;;
80119;SDS011;69425;55.040;82.918;2023-06-26T01:08:43;10.23;;;4.35;;
80119;SDS011;69425;55.040;82.918;2023-06-26T01:13:45;8.18;;;4.35;;
80119;SDS011;69425;55.040;82.918;2023-06-26T01:18:48;9.70;;;4.75;;
80119;SDS011;69425;55.040;82.918;2023-06-26T01:23:57;10.88;;;4.72;;
80119;SDS011;69425;55.040;82.918;2023-06-26T01:29:03;11.18;;;4.75;;
80119;SDS011;69425;55.040;82.918;2023-06-26T01:34:05;13.27;;;5.20;;
80119;SDS011;69425;55.040;82.918;2023-06-26T01:39:06;8.15;;;4.47;;
80119;SDS011;69425;55.040;82.918;2023-06-26T01:44:12;11.40;;;4.45;;
80119;SDS011;69425;55.040;82.918;2023-06-26T01:49:20;9.23;;;4.15;;
80119;SDS011;69425;55.040;82.918;2023-06-26T01:54:24;11.50;;;4.13;;
80119;SDS011;69425;55.040;82.918;2023-06-26T01:59:28;11.68;;;4.53;;
80119;SDS011;69425;55.040;82.918;2023-06-26T02:04:31;14.38;;;4.55;;
80119;SDS011;69425;55.040;82.918;2023-06-26T02:09:32;10.65;;;4.85;;
80119;SDS011;69425;55.040;82.918;2023-06-26T02:14:35;18.75;;;4.88;;
80119;SDS011;69425;55.040;82.918;2023-06-26T02:19:36;22.70;;;6.05;;
80119;SDS011;69425;55.040;82.918;2023-06-26T02:24:37;17.30;;;5.70;;
80119;SDS011;69425;55.040;82.918;2023-06-26T02:29:40;17.00;;;4.68;;
80119;SDS011;69425;55.040;82.918;2023-06-26T02:34:42;11.93;;;4.72;;
80119;SDS011;69425;55.040;82.918;2023-06-26T02:39:43;12.05;;;4.38;;
80119;SDS011;69425;55.040;82.918;2023-06-26T02:44:46;12.80;;;4.72;;
80119;SDS011;69425;55.040;82.918;2023-06-26T02:49:47;11.95;;;5.13;;
80119;SDS011;69425;55.040;82.918;2023-06-26T02:54:48;9.40;;;4.95;;
80119;SDS011;69425;55.040;82.918;2023-06-26T02:59:51;9.48;;;4.80;;
80119;SDS011;69425;55.040;82.918;2023-06-26T03:04:52;9.40;;;4.13;;
80119;SDS011;69425;55.040;82.918;2023-06-26T03:09:53;12.93;;;4.22;;
80119;SDS011;69425;55.040;82.918;2023-06-26T03:14:56;9.55;;;4.00;;
80119;SDS011;69425;55.040;82.918;2023-06-26T03:19:57;4.18;;;2.40;;
80119;SDS011;69425;55.040;82.918;2023-06-26T03:24:58;4.25;;;2.35;;
80119;SDS011;69425;55.040;82.918;2023-06-26T03:30:01;6.32;;;2.78;;
80119;SDS011;69425;55.040;82.918;2023-06-26T03:35:05;10.32;;;3.33;;
80119;SDS011;69425;55.040;82.918;2023-06-26T03:40:07;6.53;;;3.20;;
80119;SDS011;69425;55.040;82.918;2023-06-26T03:45:10;10.50;;;3.90;;
80119;SDS011;69425;55.040;82.918;2023-06-26T03:50:12;11.57;;;3.35;;
80119;SDS011;69425;55.040;82.918;2023-06-26T03:55:13;10.88;;;3.15;;
80119;SDS011;69425;55.040;82.918;2023-06-26T04:00:16;4.65;;;2.33;;
80119;SDS011;69425;55.040;82.918;2023-06-26T04:05:18;7.70;;;3.30;;
80119;SDS011;69425;55.040;82.918;2023-06-26T04:10:19;8.07;;;2.63;;
80119;SDS011;69425;55.040;82.918;2023-06-26T04:15:22;5.03;;;2.30;;
80119;SDS011;69425;55.040;82.918;2023-06-26T04:20:23;4.13;;;2.58;;
80119;SDS011;69425;55.040;82.918;2023-06-26T04:25:24;4.75;;;1.70;;
80119;SDS011;69425;55.040;82.918;2023-06-26T04:30:27;7.80;;;1.80;;
80119;SDS011;69425;55.040;82.918;2023-06-26T04:35:28;2.97;;;1.40;;
80119;SDS011;69425;55.040;82.918;2023-06-26T04:40:29;4.28;;;2.05;;
80119;SDS011;69425;55.040;82.918;2023-06-26T04:45:32;3.55;;;1.63;;
80119;SDS011;69425;55.040;82.918;2023-06-26T04:50:33;3.40;;;1.70;;
80119;SDS011;69425;55.040;82.918;2023-06-26T04:55:36;3.03;;;1.92;;
80119;SDS011;69425;55.040;82.918;2023-06-26T05:00:38;3.33;;;1.70;;
80119;SDS011;69425;55.040;82.918;2023-06-26T05:05:40;2.78;;;1.58;;
80119;SDS011;69425;55.040;82.918;2023-06-26T05:10:41;3.85;;;1.45;;
80119;SDS011;69425;55.040;82.918;2023-06-26T05:15:44;8.43;;;2.00;;
80119;SDS011;69425;55.040;82.918;2023-06-26T05:20:48;5.03;;;2.10;;
80119;SDS011;69425;55.040;82.918;2023-06-26T05:25:50;2.47;;;1.38;;
80119;SDS011;69425;55.040;82.918;2023-06-26T05:30:54;4.57;;;1.60;;
80119;SDS011;69425;55.040;82.918;2023-06-26T05:35:56;4.00;;;1.50;;
80119;SDS011;69425;55.040;82.918;2023-06-26T05:40:57;4.65;;;1.63;;
80119;SDS011;69425;55.040;82.918;2023-06-26T05:46:01;3.50;;;1.48;;
80119;SDS011;69425;55.040;82.918;2023-06-26T05:51:02;3.10;;;1.60;;
80119;SDS011;69425;55.040;82.918;2023-06-26T05:56:04;3.20;;;1.40;;
80119;SDS011;69425;55.040;82.918;2023-06-26T06:01:07;2.83;;;1.73;;
80119;SDS011;69425;55.040;82.918;2023-06-26T06:06:08;4.53;;;1.30;;
80119;SDS011;69425;55.040;82.918;2023-06-26T06:11:10;4.57;;;1.50;;
80119;SDS011;69425;55.040;82.918;2023-06-26T06:16:13;2.13;;;1.45;;
80119;SDS011;69425;55.040;82.918;2023-06-26T06:21:14;2.08;;;1.42;;
80119;SDS011;69425;55.040;82.918;2023-06-26T06:26:15;6.28;;;1.80;;
80119;SDS011;69425;55.040;82.918;2023-06-26T06:31:18;11.70;;;2.15;;
80119;SDS011;69425;55.040;82.918;2023-06-26T06:36:19;3.72;;;1.23;;
80119;SDS011;69425;55.040;82.918;2023-06-26T06:41:21;4.30;;;1.17;;
80119;SDS011;69425;55.040;82.918;2023-06-26T06:46:23;2.05;;;1.25;;
80119;SDS011;69425;55.040;82.918;2023-06-26T06:51:24;4.90;;;1.90;;
80119;SDS011;69425;55.040;82.918;2023-06-26T06:56:26;5.72;;;1.88;;
80119;SDS011;69425;55.040;82.918;2023-06-26T07:01:28;6.68;;;2.05;;
80119;SDS011;69425;55.040;82.918;2023-06-26T07:06:30;5.28;;;2.08;;
80119;SDS011;69425;55.040;82.918;2023-06-26T07:11:31;4.78;;;2.00;;
80119;SDS011;69425;55.040;82.918;2023-06-26T07:16:34;2.63;;;1.58;;
80119;SDS011;69425;55.040;82.918;2023-06-26T07:21:36;3.22;;;1.60;;
80119;SDS011;69425;55.040;82.918;2023-06-26T07:26:37;1.98;;;1.33;;
80119;SDS011;69425;55.040;82.918;2023-06-26T07:31:39;5.10;;;1.65;;
80119;SDS011;69425;55.040;82.918;2023-06-26T07:36:41;17.95;;;2.30;;
80119;SDS011;69425;55.040;82.918;2023-06-26T07:41:42;3.28;;;1.27;;
80119;SDS011;69425;55.040;82.918;2023-06-26T07:46:45;4.00;;;1.17;;
80119;SDS011;69425;55.040;82.918;2023-06-26T07:51:46;4.53;;;1.30;;
80119;SDS011;69425;55.040;82.918;2023-06-26T07:56:54;4.57;;;1.42;;
80119;SDS011;69425;55.040;82.918;2023-06-26T08:01:57;8.32;;;1.67;;
80119;SDS011;69425;55.040;82.918;2023-06-26T08:06:59;4.32;;;1.73;;
80119;SDS011;69425;55.040;82.918;2023-06-26T08:12:00;2.45;;;1.30;;
80119;SDS011;69425;55.040;82.918;2023-06-26T08:17:03;6.78;;;1.85;;
80119;SDS011;69425;55.040;82.918;2023-06-26T08:22:05;5.75;;;2.60;;
80119;SDS011;69425;55.040;82.918;2023-06-26T08:27:06;6.03;;;2.35;;
80119;SDS011;69425;55.040;82.918;2023-06-26T08:32:08;3.22;;;1.33;;
80119;SDS011;69425;55.040;82.918;2023-06-26T08:37:10;2.67;;;1.60;;
80119;SDS011;69425;55.040;82.918;2023-06-26T08:42:11;2.70;;;1.30;;
80119;SDS011;69425;55.040;82.918;2023-06-26T08:47:14;1.83;;;1.20;;
80119;SDS011;69425;55.040;82.918;2023-06-26T08:52:16;2.47;;;1.60;;
80119;SDS011;69425;55.040;82.918;2023-06-26T08:57:18;2.65;;;1.40;;
80119;SDS011;69425;55.040;82.918;2023-06-26T09:02:21;1.95;;;1.40;;
80119;SDS011;69425;55.040;82.918;2023-06-26T09:07:22;3.42;;;1.38;;
80119;SDS011;69425;55.040;82.918;2023-06-26T09:12:29;2.80;;;1.38;;
80119;SDS011;69425;55.040;82.918;2023-06-26T09:17:38;3.42;;;1.63;;
80119;SDS011;69425;55.040;82.918;2023-06-26T09:22:40;2.80;;;1.35;;
80119;SDS011;69425;55.040;82.918;2023-06-26T09:27:43;3.45;;;1.45;;
80119;SDS011;69425;55.040;82.918;2023-06-26T09:32:46;1.80;;;1.10;;
80119;SDS011;69425;55.040;82.918;2023-06-26T09:37:47;4.65;;;1.85;;
80119;SDS011;69425;55.040;82.918;2023-06-26T09:42:48;4.22;;;1.30;;
80119;SDS011;69425;55.040;82.918;2023-06-26T09:47:51;2.88;;;1.63;;
80119;SDS011;69425;55.040;82.918;2023-06-26T09:52:53;1.80;;;1.33;;
80119;SDS011;69425;55.040;82.918;2023-06-26T09:57:55;2.95;;;1.20;;
80119;SDS011;69425;55.040;82.918;2023-06-26T10:02:59;1.48;;;1.13;;
80119;SDS011;69425;55.040;82.918;2023-06-26T10:08:00;2.85;;;1.10;;
80119;SDS011;69425;55.040;82.918;2023-06-26T10:13:04;2.47;;;1.00;;
80119;SDS011;69425;55.040;82.918;2023-06-26T10:18:10;2.55;;;1.02;;
80119;SDS011;69425;55.040;82.918;2023-06-26T10:23:12;2.53;;;1.25;;
80119;SDS011;69425;55.040;82.918;2023-06-26T10:28:14;2.85;;;1.38;;
80119;SDS011;69425;55.040;82.918;2023-06-26T10:33:18;2.45;;;1.20;;
80119;SDS011;69425;55.040;82.918;2023-06-26T10:38:20;2.80;;;1.08;;
80119;SDS011;69425;55.040;82.918;2023-06-26T10:43:29;4.68;;;1.20;;
80119;SDS011;69425;55.040;82.918;2023-06-26T10:48:35;3.85;;;1.20;;
80119;SDS011;69425;55.040;82.918;2023-06-26T10:53:56;3.75;;;1.20;;
80119;SDS011;69425;55.040;82.918;2023-06-26T10:59:01;14.70;;;1.50;;
80119;SDS011;69425;55.040;82.918;2023-06-26T11:04:15;2.80;;;1.40;;
80119;SDS011;69425;55.040;82.918;2023-06-26T11:09:17;6.57;;;1.58;;
80119;SDS011;69425;55.040;82.918;2023-06-26T11:14:19;4.95;;;1.20;;
80119;SDS011;69425;55.040;82.918;2023-06-26T11:19:22;1.90;;;0.90;;
80119;SDS011;69425;55.040;82.918;2023-06-26T11:24:27;7.15;;;1.77;;
80119;SDS011;69425;55.040;82.918;2023-06-26T11:29:32;2.67;;;1.25;;
80119;SDS011;69425;55.040;82.918;2023-06-26T11:34:35;2.88;;;1.58;;
80119;SDS011;69425;55.040;82.918;2023-06-26T11:39:37;5.30;;;1.40;;
80119;SDS011;69425;55.040;82.918;2023-06-26T11:44:40;2.67;;;1.58;;
80119;SDS011;69425;55.040;82.918;2023-06-26T11:49:44;6.78;;;1.65;;
80119;SDS011;69425;55.040;82.918;2023-06-26T11:54:46;2.42;;;1.73;;
80119;SDS011;69425;55.040;82.918;2023-06-26T11:59:49;2.60;;;1.40;;
80119;SDS011;69425;55.040;82.918;2023-06-26T12:04:52;2.35;;;1.50;;
80119;SDS011;69425;55.040;82.918;2023-06-26T12:09:53;1.80;;;1.17;;
80119;SDS011;69425;55.040;82.918;2023-06-26T12:14:55;2.75;;;1.30;;
80119;SDS011;69425;55.040;82.918;2023-06-26T12:19:57;2.40;;;1.58;;
80119;SDS011;69425;55.040;82.918;2023-06-26T12:24:59;2.40;;;1.50;;
80119;SDS011;69425;55.040;82.918;2023-06-26T12:30:04;3.90;;;1.30;;
80119;SDS011;69425;55.040;82.918;2023-06-26T12:35:08;4.25;;;1.25;;
80119;SDS011;69425;55.040;82.918;2023-06-26T12:40:19;1.73;;;1.02;;
80119;SDS011;69425;55.040;82.918;2023-06-26T12:45:20;2.55;;;1.63;;
80119;SDS011;69425;55.040;82.918;2023-06-26T12:50:23;1.83;;;1.20;;
80119;SDS011;69425;55.040;82.918;2023-06-26T12:55:24;3.90;;;1.23;;
80119;SDS011;69425;55.040;82.918;2023-06-26T13:00:25;5.55;;;1.50;;
80119;SDS011;69425;55.040;82.918;2023-06-26T13:05:28;3.65;;;1.10;;
80119;SDS011;69425;55.040;82.918;2023-06-26T13:10:29;2.95;;;1.10;;
80119;SDS011;69425;55.040;82.918;2023-06-26T13:16:41;4.18;;;1.02;;
80119;SDS011;69425;55.040;82.918;2023-06-26T13:21:32;2.95;;;1.40;;
80119;SDS011;69425;55.040;82.918;2023-06-26T13:26:34;1.63;;;1.02;;
80119;SDS011;69425;55.040;82.918;2023-06-26T13:31:35;5.40;;;1.10;;
80119;SDS011;69425;55.040;82.918;2023-06-26T13:36:38;6.45;;;1.50;;
80119;SDS011;69425;55.040;82.918;2023-06-26T13:41:39;4.75;;;1.15;;
80119;SDS011;69425;55.040;82.918;2023-06-26T13:46:40;1.70;;;1.10;;
80119;SDS011;69425;55.040;82.918;2023-06-26T13:51:43;1.95;;;1.05;;
80119;SDS011;69425;55.040;82.918;2023-06-26T13:56:44;1.70;;;1.25;;
80119;SDS011;69425;55.040;82.918;2023-06-26T14:01:45;3.33;;;1.70;;
80119;SDS011;69425;55.040;82.918;2023-06-26T14:06:48;4.45;;;1.50;;
80119;SDS011;69425;55.040;82.918;2023-06-26T14:11:49;2.75;;;1.60;;
80119;SDS011;69425;55.040;82.918;2023-06-26T14:16:51;2.10;;;1.30;;
80119;SDS011;69425;55.040;82.918;2023-06-26T14:21:53;8.27;;;1.45;;
80119;SDS011;69425;55.040;82.918;2023-06-26T14:26:54;4.05;;;1.55;;
80119;SDS011;69425;55.040;82.918;2023-06-26T14:31:56;5.68;;;1.80;;
80119;SDS011;69425;55.040;82.918;2023-06-26T14:36:58;1.90;;;1.70;;
80119;SDS011;69425;55.040;82.918;2023-06-26T14:42:00;2.55;;;1.30;;
80119;SDS011;69425;55.040;82.918;2023-06-26T14:47:40;3.75;;;1.58;;
80119;SDS011;69425;55.040;82.918;2023-06-26T14:52:43;4.30;;;1.75;;
80119;SDS011;69425;55.040;82.918;2023-06-26T14:57:44;3.92;;;2.30;;
80119;SDS011;69425;55.040;82.918;2023-06-26T15:02:45;6.22;;;2.20;;
80119;SDS011;69425;55.040;82.918;2023-06-26T15:07:48;6.30;;;2.55;;
80119;SDS011;69425;55.040;82.918;2023-06-26T15:12:49;5.03;;;2.67;;
80119;SDS011;69425;55.040;82.918;2023-06-26T15:17:51;5.82;;;2.65;;
80119;SDS011;69425;55.040;82.918;2023-06-26T15:22:53;6.00;;;2.53;;
80119;SDS011;69425;55.040;82.918;2023-06-26T15:27:55;7.88;;;3.30;;
80119;SDS011;69425;55.040;82.918;2023-06-26T15:32:56;3.33;;;2.50;;
80119;SDS011;69425;55.040;82.918;2023-06-26T15:37:58;3.70;;;2.03;;
80119;SDS011;69425;55.040;82.918;2023-06-26T15:43:00;2.70;;;2.03;;
80119;SDS011;69425;55.040;82.918;2023-06-26T15:48:01;7.40;;;3.22;;
80119;SDS011;69425;55.040;82.918;2023-06-26T15:53:04;5.35;;;2.72;;
80119;SDS011;69425;55.040;82.918;2023-06-26T15:58:05;4.22;;;2.55;;
80119;SDS011;69425;55.040;82.918;2023-06-26T16:03:06;8.32;;;2.70;;
80119;SDS011;69425;55.040;82.918;2023-06-26T16:08:09;5.32;;;2.53;;
80119;SDS011;69425;55.040;82.918;2023-06-26T16:13:10;3.75;;;2.05;;
80119;SDS011;69425;55.040;82.918;2023-06-26T16:18:12;4.82;;;2.10;;
80119;SDS011;69425;55.040;82.918;2023-06-26T16:23:14;4.85;;;2.20;;
80119;SDS011;69425;55.040;82.918;2023-06-26T16:28:16;4.20;;;2.00;;
80119;SDS011;69425;55.040;82.918;2023-06-26T16:33:17;4.57;;;1.73;;
80119;SDS011;69425;55.040;82.918;2023-06-26T16:38:20;4.88;;;2.50;;
80119;SDS011;69425;55.040;82.918;2023-06-26T16:43:21;4.65;;;2.17;;
80119;SDS011;69425;55.040;82.918;2023-06-26T16:48:23;1.80;;;1.50;;
80119;SDS011;69425;55.040;82.918;2023-06-26T16:53:25;5.03;;;2.10;;
80119;SDS011;69425;55.040;82.918;2023-06-26T16:58:27;4.10;;;1.92;;
80119;SDS011;69425;55.040;82.918;2023-06-26T17:03:28;4.05;;;1.73;;
80119;SDS011;69425;55.040;82.918;2023-06-26T17:08:31;2.42;;;1.40;;
80119;SDS011;69425;55.040;82.918;2023-06-26T17:13:32;5.10;;;1.63;;
80119;SDS011;69425;55.040;82.918;2023-06-26T17:18:33;3.72;;;1.48;;
80119;SDS011;69425;55.040;82.918;2023-06-26T17:23:38;3.60;;;1.70;;
80119;SDS011;69425;55.040;82.918;2023-06-26T17:28:39;3.70;;;1.80;;
80119;SDS011;69425;55.040;82.918;2023-06-26T17:33:40;2.13;;;1.60;;
80119;SDS011;69425;55.040;82.918;2023-06-26T17:38:43;2.55;;;1.60;;
80119;SDS011;69425;55.040;82.918;2023-06-26T17:43:44;4.32;;;1.60;;
80119;SDS011;69425;55.040;82.918;2023-06-26T17:48:45;2.38;;;1.40;;
80119;SDS011;69425;55.040;82.918;2023-06-26T17:53:48;1.75;;;1.30;;
80119;SDS011;69425;55.040;82.918;2023-06-26T17:58:49;2.88;;;1.70;;
80119;SDS011;69425;55.040;82.918;2023-06-26T18:03:50;3.28;;;1.75;;
80119;SDS011;69425;55.040;82.918;2023-06-26T18:08:53;2.63;;;1.30;;
80119;SDS011;69425;55.040;82.918;2023-06-26T18:13:54;1.70;;;1.50;;
80119;SDS011;69425;55.040;82.918;2023-06-26T18:18:56;5.88;;;1.60;;
80119;SDS011;69425;55.040;82.918;2023-06-26T18:23:59;1.90;;;1.30;;
80119;SDS011;69425;55.040;82.918;2023-06-26T18:29:00;2.00;;;1.20;;
80119;SDS011;69425;55.040;82.918;2023-06-26T18:34:01;2.00;;;1.35;;
80119;SDS011;69425;55.040;82.918;2023-06-26T18:39:04;2.33;;;1.80;;
80119;SDS011;69425;55.040;82.918;2023-06-26T18:44:05;2.20;;;1.52;;
80119;SDS011;69425;55.040;82.918;2023-06-26T18:49:06;1.65;;;1.33;;
80119;SDS011;69425;55.040;82.918;2023-06-26T18:54:09;1.83;;;1.20;;
80119;SDS011;69425;55.040;82.918;2023-06-26T18:59:10;2.28;;;1.52;;
80119;SDS011;69425;55.040;82.918;2023-06-26T19:04:11;2.17;;;1.55;;
80119;SDS011;69425;55.040;82.918;2023-06-26T19:09:14;2.80;;;1.27;;
80119;SDS011;69425;55.040;82.918;2023-06-26T19:14:15;3.25;;;1.75;;
80119;SDS011;69425;55.040;82.918;2023-06-26T19:19:16;2.65;;;1.55;;
80119;SDS011;69425;55.040;82.918;2023-06-26T19:24:19;1.90;;;1.60;;
80119;SDS011;69425;55.040;82.918;2023-06-26T19:29:20;1.88;;;1.45;;
80119;SDS011;69425;55.040;82.918;2023-06-26T19:34:21;4.50;;;1.52;;
80119;SDS011;69425;55.040;82.918;2023-06-26T19:39:24;3.00;;;1.30;;
80119;SDS011;69425;55.040;82.918;2023-06-26T19:44:25;1.98;;;1.40;;
80119;SDS011;69425;55.040;82.918;2023-06-26T19:49:26;3.50;;;1.48;;
80119;SDS011;69425;55.040;82.918;2023-06-26T19:54:29;2.15;;;1.42;;
80119;SDS011;69425;55.040;82.918;2023-06-26T19:59:30;1.67;;;1.55;;
80119;SDS011;69425;55.040;82.918;2023-06-26T20:04:32;2.95;;;1.75;;
80119;SDS011;69425;55.040;82.918;2023-06-26T20:09:36;5.07;;;1.55;;
80119;SDS011;69425;55.040;82.918;2023-06-26T20:14:37;2.15;;;1.45;;
80119;SDS011;69425;55.040;82.918;2023-06-26T20:19:38;2.40;;;1.55;;
80119;SDS011;69425;55.040;82.918;2023-06-26T20:24:41;3.35;;;1.48;;
80119;SDS011;69425;55.040;82.918;2023-06-26T20:29:42;1.95;;;1.58;;
80119;SDS011;69425;55.040;82.918;2023-06-26T20:34:43;3.35;;;1.55;;
80119;SDS011;69425;55.040;82.918;2023-06-26T20:39:46;4.68;;;1.85;;
80119;SDS011;69425;55.040;82.918;2023-06-26T20:44:48;4.97;;;1.50;;
80119;SDS011;69425;55.040;82.918;2023-06-26T20:49:50;2.20;;;1.45;;
80119;SDS011;69425;55.040;82.918;2023-06-26T20:54:54;1.88;;;1.40;;
80119;SDS011;69425;55.040;82.918;2023-06-26T20:59:56;1.90;;;1.50;;
80119;SDS011;69425;55.040;82.918;2023-06-26T21:04:57;2.60;;;1.42;;
80119;SDS011;69425;55.040;82.918;2023-06-26T21:10:00;1.98;;;1.52;;
80119;SDS011;69425;55.040;82.918;2023-06-26T21:15:01;3.35;;;1.45;;
80119;SDS011;69425;55.040;82.918;2023-06-26T21:20:05;3.10;;;1.40;;
80119;SDS011;69425;55.040;82.918;2023-06-26T21:25:08;1.90;;;1.38;;
80119;SDS011;69425;55.040;82.918;2023-06-26T21:30:10;1.70;;;1.52;;
80119;SDS011;69425;55.040;82.918;2023-06-26T21:35:12;2.38;;;1.27;;
80119;SDS011;69425;55.040;82.918;2023-06-26T21:40:15;2.28;;;1.67;;
80119;SDS011;69425;55.040;82.918;2023-06-26T21:45:16;2.85;;;1.50;;
80119;SDS011;69425;55.040;82.918;2023-06-26T21:50:17;1.80;;;1.35;;
80119;SDS011;69425;55.040;82.918;2023-06-26T21:55:20;2.00;;;1.48;;
80119;SDS011;69425;55.040;82.918;2023-06-26T22:00:21;2.75;;;1.50;;
80119;SDS011;69425;55.040;82.918;2023-06-26T22:05:22;1.98;;;1.13;;
80119;SDS011;69425;55.040;82.918;2023-06-26T22:10:25;3.00;;;1.60;;
80119;SDS011;69425;55.040;82.918;2023-06-26T22:15:26;3.50;;;1.60;;
80119;SDS011;69425;55.040;82.918;2023-06-26T22:20:28;6.30;;;1.67;;
80119;SDS011;69425;55.040;82.918;2023-06-26T22:25:31;4.50;;;1.85;;
80119;SDS011;69425;55.040;82.918;2023-06-26T22:30:32;2.75;;;1.40;;
80119;SDS011;69425;55.040;82.918;2023-06-26T22:35:33;3.38;;;1.70;;
80119;SDS011;69425;55.040;82.918;2023-06-26T22:40:36;4.07;;;1.73;;
80119;SDS011;69425;55.040;82.918;2023-06-26T22:45:37;1.75;;;1.50;;
80119;SDS011;69425;55.040;82.918;2023-06-26T22:50:38;2.70;;;1.70;;
80119;SDS011;69425;55.040;82.918;2023-06-26T22:55:41;3.20;;;1.63;;
80119;SDS011;69425;55.040;82.918;2023-06-26T23:00:42;2.63;;;1.48;;
80119;SDS011;69425;55.040;82.918;2023-06-26T23:05:44;2.70;;;1.40;;
80119;SDS011;69425;55.040;82.918;2023-06-26T23:10:46;2.15;;;1.67;;
80119;SDS011;69425;55.040;82.918;2023-06-26T23:15:47;2.03;;;1.50;;
80119;SDS011;69425;55.040;82.918;2023-06-26T23:20:49;6.20;;;1.70;;
80119;SDS011;69425;55.040;82.918;2023-06-26T23:25:55;3.30;;;1.60;;
80119;SDS011;69425;55.040;82.918;2023-06-26T23:30:56;2.45;;;1.67;;
80119;SDS011;69425;55.040;82.918;2023-06-26T23:35:57;3.30;;;1.65;;
80119;SDS011;69425;55.040;82.918;2023-06-26T23:41:00;3.35;;;2.10;;
80119;SDS011;69425;55.040;82.918;2023-06-26T23:46:03;3.90;;;1.80;;
80119;SDS011;69425;55.040;82.918;2023-06-26T23:51:04;2.55;;;1.73;;
80119;SDS011;69425;55.040;82.918;2023-06-26T23:56:07;3.55;;;2.67;;
